Time;durP1;ratioP1;P1;durP2;ratioP2;P2;SDS_P1;SDS_P2;PMS_P1;PMS_P2;Temp;Humidity;BMP_temperature;BMP_pressure;BME280_temperature;BME280_humidity;BME280_pressure;Samples;Min_cycle;Max_cycle;Signal;HPM_P1;HPM_P2
2023/12/11 00:00:19;;;;;;;16.73;5.00;;;;;;;5.90;68.40;99095.09;4977528;28;97441;-74
2023/12/11 00:02:45;;;;;;;14.63;4.73;;;;;;;5.95;68.62;99110.59;4959674;28;98065;-75
2023/12/11 00:05:10;;;;;;;16.73;4.82;;;;;;;5.97;68.54;99114.88;4963824;28;96740;-74
2023/12/11 00:07:36;;;;;;;20.88;6.57;;;;;;;5.91;68.30;99104.63;4946281;28;97293;-75
2023/12/11 00:10:01;;;;;;;18.80;5.27;;;;;;;5.94;68.42;99120.19;4977512;28;100998;-77
2023/12/11 00:12:27;;;;;;;12.30;3.57;;;;;;;5.99;68.30;99125.22;4978487;28;97960;-76
2023/12/11 00:14:52;;;;;;;15.45;5.78;;;;;;;6.02;68.40;99132.91;4979790;28;96782;-76
2023/12/11 00:17:18;;;;;;;9.52;3.45;;;;;;;5.97;68.43;99127.88;4983125;28;96903;-74
2023/12/11 00:19:43;;;;;;;18.90;4.70;;;;;;;6.05;68.16;99125.88;4960875;28;101177;-74
2023/12/11 00:22:09;;;;;;;14.90;4.13;;;;;;;6.08;68.38;99125.78;4959143;28;98961;-74
2023/12/11 00:24:35;;;;;;;16.23;4.57;;;;;;;6.05;68.37;99118.06;4978258;28;97278;-74
2023/12/11 00:27:00;;;;;;;14.82;5.30;;;;;;;6.04;68.26;99100.72;4963205;28;96965;-74
2023/12/11 00:29:26;;;;;;;17.23;4.40;;;;;;;6.13;67.85;99107.34;4945340;28;101005;-74
2023/12/11 00:31:51;;;;;;;19.33;4.35;;;;;;;6.16;67.73;99111.59;4978569;28;97529;-74
2023/12/11 00:34:17;;;;;;;9.77;3.83;;;;;;;6.08;68.27;99117.94;4945352;28;97206;-75
2023/12/11 00:36:44;;;;;;;17.77;4.60;;;;;;;6.06;68.13;99103.28;4964474;28;97576;-76
2023/12/11 00:39:10;;;;;;;12.30;3.63;;;;;;;6.04;68.55;99107.69;4979992;28;98372;-73
2023/12/11 00:41:36;;;;;;;17.00;4.90;;;;;;;6.11;69.30;99109.19;4966918;28;100904;-73
2023/12/11 00:44:01;;;;;;;11.13;3.60;;;;;;;6.05;69.29;99097.22;4948375;28;96821;-75
2023/12/11 00:46:27;;;;;;;14.03;3.80;;;;;;;6.02;69.64;99097.31;4964004;28;97277;-74
2023/12/11 00:48:52;;;;;;;18.75;4.70;;;;;;;6.02;69.68;99096.44;4966655;28;101842;-77
2023/12/11 00:51:19;;;;;;;22.30;4.32;;;;;;;6.01;69.82;99102.56;4965741;28;100837;-74
2023/12/11 00:53:46;;;;;;;16.30;4.67;;;;;;;5.92;70.40;99097.66;4981511;28;97835;-76
2023/12/11 00:56:11;;;;;;;14.45;3.60;;;;;;;5.86;70.22;99096.09;4962378;28;97547;-74
2023/12/11 00:58:37;;;;;;;17.23;3.73;;;;;;;5.84;70.71;99095.31;4945666;28;101283;-74
2023/12/11 01:01:03;;;;;;;13.35;3.63;;;;;;;5.82;70.59;99102.34;4966326;28;101210;-76
2023/12/11 01:03:28;;;;;;;14.30;3.77;;;;;;;5.76;70.81;99100.78;4980873;28;97170;-75
2023/12/11 01:05:54;;;;;;;19.97;4.77;;;;;;;5.72;71.38;99093.97;4963398;28;98036;-74
2023/12/11 01:08:19;;;;;;;14.43;4.83;;;;;;;5.82;71.00;99084.94;4962891;28;100893;-77
2023/12/11 01:10:45;;;;;;;14.52;4.40;;;;;;;5.90;70.45;99056.03;4967747;28;101566;-77
2023/12/11 01:13:10;;;;;;;14.43;4.03;;;;;;;6.06;70.34;99052.00;4963242;28;96856;-74
2023/12/11 01:15:36;;;;;;;14.25;3.50;;;;;;;6.11;70.72;99031.00;4982305;28;96954;-75
2023/12/11 01:18:01;;;;;;;11.38;3.67;;;;;;;5.94;70.84;99031.63;4980237;28;97617;-74
2023/12/11 01:20:27;;;;;;;16.00;4.05;;;;;;;6.02;71.25;99023.50;4963212;28;97444;-74
2023/12/11 01:22:53;;;;;;;15.63;4.00;;;;;;;6.11;70.95;99018.00;4964870;28;96815;-75
2023/12/11 01:25:18;;;;;;;15.43;4.38;;;;;;;6.20;70.80;99019.41;4980614;28;96877;-75
2023/12/11 01:27:44;;;;;;;19.10;4.40;;;;;;;6.21;70.59;99029.75;4982186;28;101692;-74
2023/12/11 01:30:09;;;;;;;14.50;4.40;;;;;;;6.07;71.24;99039.81;4980804;28;97442;-74
2023/12/11 01:32:35;;;;;;;14.98;4.82;;;;;;;5.97;71.16;99067.13;4945781;28;96822;-74
2023/12/11 01:35:00;;;;;;;16.55;4.50;;;;;;;5.82;71.81;99084.09;4964183;28;96919;-74
2023/12/11 01:37:26;;;;;;;16.47;4.73;;;;;;;5.76;71.72;99092.97;4979623;28;97482;-78
2023/12/11 01:39:51;;;;;;;18.73;5.53;;;;;;;5.74;72.18;99083.50;4961059;28;101123;-74
2023/12/11 01:42:17;;;;;;;15.20;4.10;;;;;;;5.60;72.89;99052.72;4983568;28;96813;-75
2023/12/11 01:44:43;;;;;;;16.60;4.60;;;;;;;5.56;73.78;99056.34;4967174;28;97281;-74
2023/12/11 01:47:08;;;;;;;15.77;5.37;;;;;;;5.52;73.88;99086.81;4964661;28;102032;-79
2023/12/11 01:49:37;;;;;;;15.33;3.70;;;;;;;5.39;74.14;99073.38;4962623;28;99512;-75
2023/12/11 01:52:03;;;;;;;20.57;4.67;;;;;;;5.52;74.62;99097.22;4963159;28;99781;-74
2023/12/11 01:54:30;;;;;;;22.10;3.77;;;;;;;5.40;74.29;99056.00;4975412;28;96753;-74
2023/12/11 01:56:55;;;;;;;17.13;5.40;;;;;;;5.49;74.33;99057.44;4964583;28;101286;-74
2023/12/11 01:59:21;;;;;;;16.37;4.03;;;;;;;5.47;75.02;99044.50;4978209;28;97313;-73
2023/12/11 02:01:47;;;;;;;15.07;4.40;;;;;;;5.40;75.22;98990.94;4961689;28;97244;-74
2023/12/11 02:04:15;;;;;;;13.27;3.37;;;;;;;5.40;75.49;99006.53;4967454;28;97321;-74
2023/12/11 02:06:41;;;;;;;12.43;3.77;;;;;;;5.40;75.74;98983.13;4964931;28;97545;-75
2023/12/11 02:09:07;;;;;;;13.57;4.10;;;;;;;5.41;75.65;98970.06;4965169;28;100877;-73
2023/12/11 02:11:32;;;;;;;17.57;4.40;;;;;;;5.37;75.78;98959.81;4964018;28;96864;-74
2023/12/11 02:13:58;;;;;;;10.40;4.33;;;;;;;5.36;75.72;98950.31;4979353;28;97441;-74
2023/12/11 02:16:23;;;;;;;18.87;4.37;;;;;;;5.37;75.68;98967.63;4964294;28;101202;-73
2023/12/11 02:18:49;;;;;;;13.27;3.57;;;;;;;5.44;75.48;98974.31;4979479;28;97608;-75
2023/12/11 02:21:14;;;;;;;21.47;4.33;;;;;;;5.52;75.62;98979.25;4978499;28;97085;-74
2023/12/11 02:23:47;;;;;;;11.23;3.77;;;;;;;5.53;75.51;99002.63;4956177;28;97045;-73
2023/12/11 02:26:17;;;;;;;12.03;4.10;;;;;;;5.49;75.58;98995.81;4963603;28;101245;-74
2023/12/11 02:28:42;;;;;;;11.83;4.00;;;;;;;5.37;75.79;98965.84;4948244;28;101216;-73
2023/12/11 02:31:08;;;;;;;14.23;3.73;;;;;;;5.31;75.89;98957.41;4948489;28;97162;-75
2023/12/11 02:33:34;;;;;;;13.20;4.77;;;;;;;5.43;75.29;98973.44;4964095;28;96962;-74
2023/12/11 02:35:59;;;;;;;14.57;5.80;;;;;;;5.40;75.34;98954.50;4946543;28;101032;-75
2023/12/11 02:38:25;;;;;;;12.87;3.87;;;;;;;5.30;75.41;98933.16;4959202;28;101420;-74
2023/12/11 02:40:51;;;;;;;13.10;3.43;;;;;;;5.31;75.66;98929.63;4979994;28;97058;-73
2023/12/11 02:43:16;;;;;;;12.00;3.37;;;;;;;5.36;75.49;98929.50;4982880;28;96871;-74
2023/12/11 02:45:42;;;;;;;24.17;5.13;;;;;;;5.30;75.07;98914.94;4963212;28;101204;-73
2023/12/11 02:48:08;;;;;;;12.10;3.60;;;;;;;5.36;74.97;98922.53;4961676;28;99466;-76
2023/12/11 02:50:33;;;;;;;11.37;3.43;;;;;;;5.40;74.64;98923.25;4976754;28;96876;-74
2023/12/11 02:53:02;;;;;;;10.07;3.53;;;;;;;5.42;73.73;98911.91;4958268;28;96908;-76
2023/12/11 02:55:28;;;;;;;18.43;3.50;;;;;;;5.40;73.81;98912.84;4946498;28;100632;-74
2023/12/11 02:57:56;;;;;;;14.10;3.93;;;;;;;5.47;73.64;98916.06;4976675;28;97446;-74
2023/12/11 03:00:22;;;;;;;12.53;3.70;;;;;;;5.47;73.43;98905.66;4967400;28;97331;-77
2023/12/11 03:02:47;;;;;;;15.60;4.17;;;;;;;5.49;73.91;98903.88;4982242;28;97395;-74
2023/12/11 03:05:13;;;;;;;13.47;3.20;;;;;;;5.43;73.38;98891.94;4980335;28;98118;-74
2023/12/11 03:07:38;;;;;;;11.32;3.53;;;;;;;5.47;73.43;98898.75;4963710;28;100910;-75
2023/12/11 03:10:04;;;;;;;14.13;3.97;;;;;;;5.38;73.33;98880.81;4961686;28;96858;-74
2023/12/11 03:12:30;;;;;;;14.02;3.67;;;;;;;5.36;72.98;98867.88;4975244;28;97320;-75
2023/12/11 03:14:55;;;;;;;9.07;3.30;;;;;;;5.38;73.08;98876.50;4963706;28;101470;-74
2023/12/11 03:17:21;;;;;;;10.57;3.70;;;;;;;5.36;73.29;98877.44;4975579;28;100755;-74
2023/12/11 03:19:46;;;;;;;11.00;3.93;;;;;;;5.42;73.04;98872.88;4963650;28;96807;-74
2023/12/11 03:22:12;;;;;;;12.43;3.43;;;;;;;5.42;73.12;98869.41;4963950;28;97236;-76
2023/12/11 03:24:37;;;;;;;7.77;3.10;;;;;;;5.39;73.29;98854.75;4963063;28;97432;-74
2023/12/11 03:27:03;;;;;;;11.38;4.18;;;;;;;5.47;72.45;98864.91;4984234;28;97663;-74
2023/12/11 03:29:28;;;;;;;14.83;3.47;;;;;;;5.45;72.44;98844.13;4962981;28;98413;-74
2023/12/11 03:31:54;;;;;;;17.63;4.40;;;;;;;5.40;72.40;98840.81;4964055;28;96877;-79
2023/12/11 03:34:19;;;;;;;11.57;3.90;;;;;;;5.43;72.41;98832.91;4961456;28;97348;-74
2023/12/11 03:36:45;;;;;;;9.53;3.63;;;;;;;5.49;72.62;98841.41;4977307;28;97256;-77
2023/12/11 03:39:11;;;;;;;6.90;3.30;;;;;;;5.51;72.03;98844.81;4978772;28;96789;-75
2023/12/11 03:41:38;;;;;;;7.93;3.53;;;;;;;5.56;71.81;98840.28;4956799;28;96971;-74
2023/12/11 03:44:04;;;;;;;9.83;3.23;;;;;;;5.49;72.08;98839.66;4963318;28;101928;-74
2023/12/11 03:46:29;;;;;;;13.57;4.17;;;;;;;5.48;71.77;98837.13;4978727;28;101339;-74
2023/12/11 03:48:55;;;;;;;8.97;3.67;;;;;;;5.51;71.74;98834.41;4963186;28;96816;-74
2023/12/11 03:51:20;;;;;;;11.10;3.70;;;;;;;5.58;71.39;98834.09;4974040;28;96896;-75
2023/12/11 03:53:46;;;;;;;13.00;3.90;;;;;;;5.63;70.89;98828.72;4975707;28;97368;-76
2023/12/11 03:56:11;;;;;;;11.10;3.77;;;;;;;5.66;70.92;98826.84;4959148;28;97574;-74
2023/12/11 03:58:37;;;;;;;12.02;3.88;;;;;;;5.64;70.91;98826.09;4979036;28;97249;-75
2023/12/11 04:01:03;;;;;;;7.93;3.70;;;;;;;5.66;71.00;98828.59;4965353;28;96767;-74
2023/12/11 04:03:28;;;;;;;7.10;3.07;;;;;;;5.67;70.72;98827.69;4962436;28;101376;-75
2023/12/11 04:05:54;;;;;;;9.73;3.00;;;;;;;5.72;70.85;98820.56;4978283;28;101374;-74
2023/12/11 04:08:19;;;;;;;7.95;2.83;;;;;;;5.70;70.73;98824.97;4979270;28;96832;-74
2023/12/11 04:10:45;;;;;;;9.10;3.10;;;;;;;5.74;70.41;98813.56;4976205;28;97139;-74
2023/12/11 04:13:10;;;;;;;9.33;3.30;;;;;;;5.75;70.87;98810.03;4977828;28;97340;-76
2023/12/11 04:15:36;;;;;;;4.82;2.58;;;;;;;5.81;70.48;98807.19;4964313;28;101535;-74
2023/12/11 04:18:01;;;;;;;6.13;2.50;;;;;;;5.90;70.29;98806.84;4981990;28;97515;-75
2023/12/11 04:20:27;;;;;;;8.82;2.83;;;;;;;5.96;70.10;98799.72;4960714;28;97144;-77
2023/12/11 04:22:52;;;;;;;6.22;2.88;;;;;;;6.02;69.87;98797.75;4982634;28;98336;-75
2023/12/11 04:25:18;;;;;;;9.20;2.65;;;;;;;5.98;69.97;98790.94;4965179;28;101241;-74
2023/12/11 04:27:44;;;;;;;3.80;1.90;;;;;;;5.98;70.18;98792.69;4946092;28;96836;-74
2023/12/11 04:30:09;;;;;;;5.70;1.95;;;;;;;5.89;70.46;98786.06;4981611;28;97929;-74
2023/12/11 04:32:35;;;;;;;4.22;1.80;;;;;;;5.97;70.71;98797.06;4947516;28;101182;-74
2023/12/11 04:35:00;;;;;;;4.93;1.50;;;;;;;6.03;70.31;98786.41;4983631;28;98136;-74
2023/12/11 04:37:26;;;;;;;4.63;1.80;;;;;;;6.11;69.84;98791.31;4965124;28;97539;-78
2023/12/11 04:39:52;;;;;;;4.70;1.73;;;;;;;5.97;70.46;98780.59;4964858;28;97311;-76
2023/12/11 04:42:17;;;;;;;2.78;1.45;;;;;;;6.09;70.93;98791.38;4965300;28;101456;-75
2023/12/11 04:44:43;;;;;;;6.10;1.63;;;;;;;6.21;70.15;98790.03;4977633;28;101342;-74
2023/12/11 04:47:08;;;;;;;2.67;1.47;;;;;;;6.23;70.15;98780.41;4966631;28;97175;-76
2023/12/11 04:49:34;;;;;;;5.80;1.63;;;;;;;6.23;70.53;98784.75;4965726;28;96874;-74
2023/12/11 04:51:59;;;;;;;2.50;1.30;;;;;;;6.23;70.81;98783.00;4984707;28;97644;-75
2023/12/11 04:54:25;;;;;;;5.43;1.70;;;;;;;6.17;70.19;98761.53;4960952;28;101734;-74
2023/12/11 04:56:51;;;;;;;2.60;1.30;;;;;;;6.29;70.44;98774.09;4998309;28;96928;-74
2023/12/11 04:59:16;;;;;;;5.25;1.60;;;;;;;6.29;69.93;98780.13;4981335;28;97672;-74
2023/12/11 05:01:41;;;;;;;3.05;1.45;;;;;;;6.19;70.51;98771.00;4981871;28;97651;-74
2023/12/11 05:04:07;;;;;;;2.58;1.30;;;;;;;6.33;70.22;98780.84;4947582;28;101034;-75
2023/12/11 05:06:32;;;;;;;5.37;1.50;;;;;;;6.40;70.03;98787.53;4985798;28;96768;-74
2023/12/11 05:08:58;;;;;;;2.17;1.15;;;;;;;6.33;70.12;98773.03;4961991;28;97200;-74
2023/12/11 05:11:23;;;;;;;2.80;1.38;;;;;;;6.42;70.00;98775.25;4979689;28;98896;-74
2023/12/11 05:13:49;;;;;;;4.10;1.47;;;;;;;6.36;70.01;98772.91;4971621;28;101084;-74
2023/12/11 05:16:14;;;;;;;3.28;1.52;;;;;;;6.40;69.92;98771.88;4955762;28;96964;-74
2023/12/11 05:18:40;;;;;;;4.93;1.07;;;;;;;6.44;69.85;98768.22;4974077;28;97357;-74
2023/12/11 05:21:07;;;;;;;5.82;1.63;;;;;;;6.50;69.89;98777.56;4968507;28;101143;-73
2023/12/11 05:23:32;;;;;;;3.58;1.27;;;;;;;6.50;69.72;98769.75;4949007;28;100533;-74
2023/12/11 05:25:58;;;;;;;5.95;1.42;;;;;;;6.49;69.46;98776.72;4970166;28;98629;-74
2023/12/11 05:28:23;;;;;;;4.63;1.60;;;;;;;6.53;69.62;98772.22;4948786;28;97228;-74
2023/12/11 05:30:49;;;;;;;3.83;1.80;;;;;;;6.48;69.99;98767.19;4971244;28;97909;-77
2023/12/11 05:33:14;;;;;;;3.60;1.80;;;;;;;6.47;69.96;98777.69;4958905;28;101330;-75
2023/12/11 05:35:40;;;;;;;3.13;1.10;;;;;;;6.53;70.09;98770.44;4964986;28;96731;-73
2023/12/11 05:38:05;;;;;;;4.13;1.60;;;;;;;6.57;69.75;98771.16;4965668;28;96790;-73
2023/12/11 05:40:31;;;;;;;4.17;1.37;;;;;;;6.54;69.64;98777.38;4953150;28;101246;-74
2023/12/11 05:42:56;;;;;;;5.00;1.40;;;;;;;6.60;70.08;98776.25;4972430;28;98055;-76
2023/12/11 05:45:22;;;;;;;5.82;1.77;;;;;;;6.62;69.98;98774.44;4972539;28;96745;-78
2023/12/11 05:47:47;;;;;;;4.87;1.43;;;;;;;6.60;69.54;98759.75;4965275;28;98966;-78
2023/12/11 05:50:13;;;;;;;5.68;1.35;;;;;;;6.56;69.76;98751.22;4951995;28;100481;-75
2023/12/11 05:52:39;;;;;;;5.40;1.87;;;;;;;6.66;69.38;98760.38;4975298;28;100856;-74
2023/12/11 05:55:05;;;;;;;5.55;1.40;;;;;;;6.75;69.42;98761.72;4994506;28;97134;-74
2023/12/11 05:57:30;;;;;;;3.72;1.45;;;;;;;6.73;69.39;98758.34;4972948;28;97034;-74
2023/12/11 05:59:55;;;;;;;11.50;2.63;;;;;;;6.74;69.19;98757.41;4956773;28;101258;-74
2023/12/11 06:02:21;;;;;;;3.10;1.30;;;;;;;6.84;69.24;98765.69;4956037;28;99439;-74
2023/12/11 06:04:47;;;;;;;7.03;1.65;;;;;;;6.84;68.96;98776.13;4982097;28;97201;-73
2023/12/11 06:07:12;;;;;;;2.53;1.27;;;;;;;6.86;68.94;98766.47;4975608;28;98337;-74
2023/12/11 06:09:38;;;;;;;5.78;1.40;;;;;;;6.89;69.44;98776.75;4962367;28;99625;-76
2023/12/11 06:12:04;;;;;;;4.05;1.63;;;;;;;6.90;68.83;98781.09;4970359;28;97355;-75
2023/12/11 06:14:29;;;;;;;5.35;1.83;;;;;;;6.89;68.82;98774.16;4966069;28;96733;-77
2023/12/11 06:16:55;;;;;;;4.18;1.48;;;;;;;6.95;68.67;98785.19;4954723;28;96811;-74
2023/12/11 06:19:20;;;;;;;3.85;1.65;;;;;;;6.91;68.45;98767.13;4969233;28;100499;-75
2023/12/11 06:21:46;;;;;;;3.90;1.60;;;;;;;6.86;68.60;98754.25;4948608;28;101326;-75
2023/12/11 06:24:11;;;;;;;15.23;2.47;;;;;;;6.90;68.58;98776.72;4983470;28;96860;-74
2023/12/11 06:26:42;;;;;;;10.75;2.85;;;;;;;6.92;68.78;98774.88;4972395;28;97298;-75
2023/12/11 06:29:08;;;;;;;4.93;1.88;;;;;;;6.81;68.60;98782.31;4971416;28;97797;-75
2023/12/11 06:31:34;;;;;;;7.03;2.15;;;;;;;6.85;68.37;98778.66;4977704;28;96831;-75
2023/12/11 06:33:59;;;;;;;4.88;2.17;;;;;;;6.95;70.31;98779.97;4962638;28;97454;-75
2023/12/11 06:36:28;;;;;;;4.85;2.15;;;;;;;6.95;69.03;98785.19;4952526;28;96824;-75
2023/12/11 06:38:54;;;;;;;5.30;1.70;;;;;;;6.95;68.20;98787.78;4972015;28;98048;-77
2023/12/11 06:41:19;;;;;;;9.63;2.10;;;;;;;6.89;68.26;98793.25;4954618;28;101309;-75
2023/12/11 06:43:47;;;;;;;6.75;2.10;;;;;;;6.89;68.67;98788.03;4974367;28;96733;-74
2023/12/11 06:46:13;;;;;;;6.70;1.70;;;;;;;6.88;68.26;98790.72;4956244;28;96848;-75
2023/12/11 06:48:38;;;;;;;4.85;1.77;;;;;;;6.86;68.20;98788.16;4956435;28;101032;-73
2023/12/11 06:51:04;;;;;;;3.05;1.90;;;;;;;6.94;68.07;98798.28;4954699;28;101402;-74
2023/12/11 06:53:30;;;;;;;5.68;1.95;;;;;;;6.95;68.10;98808.66;4972014;28;97011;-74
2023/12/11 06:55:55;;;;;;;6.00;2.00;;;;;;;6.98;68.21;98799.84;4955272;28;96751;-75
2023/12/11 06:58:21;;;;;;;3.83;1.98;;;;;;;6.98;67.87;98794.63;4974829;28;97383;-74
2023/12/11 07:00:47;;;;;;;5.75;2.08;;;;;;;7.06;68.01;98799.50;4959478;28;98377;-73
2023/12/11 07:03:12;;;;;;;4.00;1.80;;;;;;;7.10;67.52;98793.22;4953968;28;96800;-73
2023/12/11 07:05:42;;;;;;;7.22;2.05;;;;;;;7.08;67.49;98802.91;4954830;28;96884;-73
2023/12/11 07:08:07;;;;;;;5.75;2.00;;;;;;;7.06;67.49;98796.91;4969820;28;101810;-75
2023/12/11 07:10:33;;;;;;;7.10;2.38;;;;;;;6.99;67.98;98796.31;4956527;28;100201;-74
2023/12/11 07:12:58;;;;;;;4.65;1.90;;;;;;;6.97;68.18;98803.38;4957185;28;96824;-75
2023/12/11 07:15:24;;;;;;;7.10;2.40;;;;;;;7.01;68.02;98810.13;4973590;28;97153;-75
2023/12/11 07:17:49;;;;;;;8.07;2.72;;;;;;;7.00;67.80;98813.66;4953263;28;101176;-77
2023/12/11 07:20:15;;;;;;;5.45;2.30;;;;;;;7.01;68.24;98812.75;4950522;28;101349;-75
2023/12/11 07:22:40;;;;;;;7.78;2.42;;;;;;;7.15;67.87;98819.97;4964206;28;97461;-75
2023/12/11 07:25:06;;;;;;;4.85;2.70;;;;;;;7.15;67.96;98830.41;4962756;28;96984;-76
2023/12/11 07:27:33;;;;;;;8.55;3.60;;;;;;;7.11;68.03;98810.59;4951875;28;100858;-75
2023/12/11 07:29:59;;;;;;;6.57;2.40;;;;;;;7.16;68.13;98819.94;4974322;28;100874;-75
2023/12/11 07:32:25;;;;;;;10.60;2.58;;;;;;;7.23;67.75;98820.50;4935017;28;96866;-76
2023/12/11 07:34:51;;;;;;;5.45;2.70;;;;;;;7.26;67.55;98815.97;4968445;28;96871;-77
2023/12/11 07:37:16;;;;;;;7.90;2.60;;;;;;;7.29;67.81;98809.78;4945711;28;101446;-74
2023/12/11 07:39:42;;;;;;;5.07;1.92;;;;;;;7.37;67.93;98812.91;4943003;28;101056;-75
2023/12/11 07:42:07;;;;;;;5.90;2.33;;;;;;;7.39;67.27;98816.28;4942943;28;96777;-75
2023/12/11 07:44:33;;;;;;;6.93;2.30;;;;;;;7.51;67.30;98822.72;4939095;28;97223;-80
2023/12/11 07:46:59;;;;;;;6.07;2.38;;;;;;;7.43;67.42;98811.78;4965517;28;101337;-75
2023/12/11 07:49:25;;;;;;;5.25;2.30;;;;;;;7.45;67.16;98815.19;4960159;28;98391;-74
2023/12/11 07:51:52;;;;;;;5.80;2.17;;;;;;;7.42;67.74;98824.00;4957205;28;96969;-75
2023/12/11 07:54:18;;;;;;;8.88;2.55;;;;;;;7.44;67.63;98823.91;4957894;28;97086;-75
2023/12/11 07:56:43;;;;;;;10.05;2.17;;;;;;;7.38;67.83;98821.56;4955181;28;101266;-75
2023/12/11 07:59:10;;;;;;;6.10;2.55;;;;;;;7.38;67.60;98817.19;4960239;28;101267;-75
2023/12/11 08:01:35;;;;;;;7.78;2.78;;;;;;;7.41;67.49;98822.28;4952195;28;97088;-76
2023/12/11 08:04:01;;;;;;;6.60;2.38;;;;;;;7.44;67.58;98819.53;4960127;28;96979;-75
2023/12/11 08:06:27;;;;;;;9.27;2.78;;;;;;;7.41;67.58;98817.06;4959250;28;101650;-78
2023/12/11 08:08:52;;;;;;;6.30;2.67;;;;;;;7.51;67.52;98825.34;4954885;28;98479;-78
2023/12/11 08:11:24;;;;;;;4.75;2.20;;;;;;;7.47;67.90;98831.59;4948838;28;96823;-75
2023/12/11 08:13:50;;;;;;;6.43;1.90;;;;;;;7.54;67.71;98845.25;4955676;28;97594;-76
2023/12/11 08:16:16;;;;;;;8.38;1.90;;;;;;;7.52;67.61;98832.25;4967832;28;97543;-75
2023/12/11 08:18:43;;;;;;;6.75;2.13;;;;;;;7.57;67.50;98830.28;4969883;28;98156;-75
2023/12/11 08:21:09;;;;;;;6.78;2.40;;;;;;;7.65;67.20;98829.91;4976771;28;97327;-75
2023/12/11 08:23:34;;;;;;;5.45;2.05;;;;;;;7.65;67.48;98829.91;4940816;28;96860;-77
2023/12/11 08:26:00;;;;;;;6.80;2.85;;;;;;;7.51;67.11;98806.22;4963460;28;97941;-75
2023/12/11 08:28:25;;;;;;;5.35;2.20;;;;;;;7.69;67.15;98828.88;4954882;28;101206;-75
2023/12/11 08:30:51;;;;;;;5.93;2.15;;;;;;;7.72;67.20;98828.72;4951124;28;96836;-76
2023/12/11 08:33:16;;;;;;;7.28;2.33;;;;;;;7.71;67.55;98833.13;4948015;28;97688;-75
2023/12/11 08:35:42;;;;;;;6.00;2.00;;;;;;;7.63;67.16;98819.56;4962826;28;101460;-75
2023/12/11 08:38:07;;;;;;;5.25;2.20;;;;;;;7.76;67.09;98840.72;4968606;28;98679;-83
2023/12/11 08:40:33;;;;;;;5.13;2.33;;;;;;;7.81;67.00;98823.06;4946487;28;96776;-75
2023/12/11 08:42:58;;;;;;;4.63;2.35;;;;;;;7.89;66.70;98841.88;4984516;28;96849;-75
2023/12/11 08:45:24;;;;;;;4.90;2.28;;;;;;;7.89;66.84;98852.31;4960480;28;100807;-77
2023/12/11 08:47:50;;;;;;;6.55;2.55;;;;;;;7.93;67.03;98853.84;4955983;28;97442;-75
2023/12/11 08:50:16;;;;;;;6.60;2.72;;;;;;;7.99;66.31;98837.03;4956038;28;97252;-76
2023/12/11 08:52:44;;;;;;;10.00;3.65;;;;;;;7.99;66.67;98846.66;4954416;28;97511;-76
2023/12/11 08:55:10;;;;;;;4.75;2.30;;;;;;;7.97;66.42;98862.41;4957249;28;97396;-75
2023/12/11 08:57:35;;;;;;;4.90;2.28;;;;;;;8.09;65.99;98866.22;4971340;28;100763;-75
2023/12/11 09:00:03;;;;;;;7.97;3.63;;;;;;;8.17;66.67;98861.47;4969461;28;96842;-77
2023/12/11 09:02:29;;;;;;;6.03;2.75;;;;;;;8.26;66.28;98863.66;4954755;28;96890;-75
2023/12/11 09:04:54;;;;;;;7.90;3.00;;;;;;;8.29;65.99;98858.28;4954549;28;102025;-76
2023/12/11 09:07:20;;;;;;;9.40;3.03;;;;;;;8.34;65.74;98858.88;4958825;28;97362;-76
2023/12/11 09:09:45;;;;;;;5.65;2.47;;;;;;;8.28;65.67;98843.50;4954967;28;97110;-76
2023/12/11 09:12:11;;;;;;;4.70;2.08;;;;;;;8.42;65.81;98858.56;4970262;28;97574;-76
2023/12/11 09:14:36;;;;;;;7.13;2.50;;;;;;;8.42;65.66;98855.94;4974855;28;100139;-77
2023/12/11 09:17:02;;;;;;;5.50;2.28;;;;;;;8.43;65.28;98847.16;4972684;28;101087;-76
2023/12/11 09:19:28;;;;;;;6.00;2.13;;;;;;;8.49;65.67;98854.72;4975662;28;96689;-76
2023/12/11 09:21:53;;;;;;;3.67;1.75;;;;;;;8.56;65.21;98850.06;4970607;28;96800;-76
2023/12/11 09:24:19;;;;;;;5.18;2.03;;;;;;;8.55;65.18;98845.72;4954424;28;101392;-77
2023/12/11 09:26:45;;;;;;;5.78;2.03;;;;;;;8.61;64.84;98840.22;4967455;28;97388;-75
2023/12/11 09:29:11;;;;;;;6.53;2.30;;;;;;;8.66;64.90;98848.66;4954669;28;97023;-77
2023/12/11 09:31:38;;;;;;;6.22;1.95;;;;;;;8.58;65.51;98850.81;4944239;28;97119;-78
2023/12/11 09:34:03;;;;;;;3.67;1.95;;;;;;;8.53;65.20;98831.91;4954837;28;101831;-77
2023/12/11 09:36:29;;;;;;;9.80;1.90;;;;;;;8.48;65.15;98823.44;4966864;28;100663;-79
2023/12/11 09:38:55;;;;;;;4.50;1.92;;;;;;;8.52;65.88;98833.69;4962741;28;96803;-79
2023/12/11 09:41:21;;;;;;;6.20;2.25;;;;;;;8.50;65.90;98845.13;4976930;28;98496;-76
2023/12/11 09:43:47;;;;;;;5.78;2.13;;;;;;;8.55;65.74;98833.53;4983887;28;98216;-76
2023/12/11 09:46:16;;;;;;;3.75;1.52;;;;;;;8.81;65.49;98827.00;4982350;28;101534;-76
2023/12/11 09:48:42;;;;;;;5.00;1.95;;;;;;;9.09;64.53;98833.41;4951524;28;97286;-77
2023/12/11 09:51:08;;;;;;;4.80;2.50;;;;;;;9.41;63.91;98820.41;4964789;28;96863;-77
2023/12/11 09:53:35;;;;;;;5.03;1.98;;;;;;;9.80;63.04;98819.19;4966913;28;101644;-75
2023/12/11 09:56:01;;;;;;;5.45;1.90;;;;;;;9.64;63.03;98819.19;4965915;28;100927;-76
2023/12/11 09:58:26;;;;;;;10.02;2.08;;;;;;;9.82;62.51;98807.72;4957565;28;97318;-77
2023/12/11 10:00:52;;;;;;;7.57;2.22;;;;;;;9.61;62.79;98811.50;4974253;28;97503;-81
2023/12/11 10:03:18;;;;;;;5.00;1.60;;;;;;;9.68;62.51;98813.69;4954269;28;101185;-78
2023/12/11 10:05:44;;;;;;;5.65;1.83;;;;;;;9.58;62.50;98804.66;4965334;28;97308;-77
2023/12/11 10:08:10;;;;;;;4.90;1.83;;;;;;;9.54;62.82;98803.13;4966027;28;97185;-75
2023/12/11 10:10:38;;;;;;;3.90;1.60;;;;;;;9.50;62.85;98805.06;4963648;28;96857;-75
2023/12/11 10:13:05;;;;;;;4.25;1.70;;;;;;;9.52;62.75;98797.97;4963822;28;97454;-71
2023/12/11 10:15:32;;;;;;;7.15;2.45;;;;;;;9.97;66.23;98790.28;4976897;28;98111;-79
2023/12/11 10:18:12;;;;;;;6.70;2.42;;;;;;;10.37;66.08;98785.44;4948211;28;96747;-75
2023/12/11 10:20:40;;;;;;;6.75;2.17;;;;;;;10.51;61.63;98772.38;4959698;28;96762;-77
2023/12/11 10:23:14;;;;;;;5.72;2.20;;;;;;;10.32;61.20;98777.00;4977625;28;98106;-76
2023/12/11 10:25:44;;;;;;;6.03;2.35;;;;;;;10.19;61.58;98774.19;4972170;28;98161;-74
2023/12/11 10:28:14;;;;;;;6.13;2.30;;;;;;;10.12;61.84;98771.09;4955418;28;96814;-75
2023/12/11 10:30:56;;;;;;;5.75;2.10;;;;;;;9.97;61.79;98771.94;4954827;28;96797;-74
2023/12/11 10:33:24;;;;;;;3.22;2.10;;;;;;;10.07;61.94;98772.28;4955505;28;102302;-81
2023/12/11 10:35:50;;;;;;;5.22;2.22;;;;;;;10.08;61.67;98766.94;4952072;28;101155;-74
2023/12/11 10:38:26;;;;;;;5.13;2.22;;;;;;;9.92;61.97;98760.88;4953668;28;96736;-75
2023/12/11 10:40:52;;;;;;;2.92;1.60;;;;;;;9.95;61.98;98760.72;4971352;28;96879;-74
2023/12/11 10:43:18;;;;;;;4.72;1.80;;;;;;;10.13;61.97;98749.16;4971221;28;98083;-75
2023/12/11 10:45:45;;;;;;;7.10;2.03;;;;;;;10.39;61.14;98746.88;4971448;28;100140;-74
2023/12/11 10:48:11;;;;;;;6.07;2.20;;;;;;;10.56;60.98;98740.59;4971655;28;96937;-74
2023/12/11 10:50:37;;;;;;;7.03;2.13;;;;;;;10.62;60.84;98732.41;4970645;28;97323;-74
2023/12/11 10:53:03;;;;;;;3.95;1.70;;;;;;;10.74;60.00;98731.66;4970630;28;100952;-74
2023/12/11 10:55:29;;;;;;;6.05;1.83;;;;;;;10.74;60.01;98731.66;4954917;28;98281;-74
2023/12/11 10:58:00;;;;;;;4.80;1.92;;;;;;;10.76;59.99;98727.19;4955419;28;96758;-74
2023/12/11 11:00:27;;;;;;;4.55;1.75;;;;;;;10.79;60.23;98728.75;4970600;28;97145;-74
2023/12/11 11:02:54;;;;;;;8.77;1.88;;;;;;;10.77;60.28;98717.50;4971710;28;98255;-76
2023/12/11 11:05:20;;;;;;;4.40;1.80;;;;;;;10.70;59.94;98717.03;4954597;28;97417;-75
2023/12/11 11:08:02;;;;;;;4.10;1.58;;;;;;;10.74;59.70;98715.06;4938818;28;97142;-74
2023/12/11 11:10:34;;;;;;;3.60;1.88;;;;;;;10.62;59.86;98717.50;4953994;28;97247;-76
2023/12/11 11:13:07;;;;;;;5.28;2.05;;;;;;;10.56;60.17;98712.63;4934999;28;101470;-75
2023/12/11 11:15:32;;;;;;;5.15;1.88;;;;;;;10.48;60.51;98704.34;4954391;28;98474;-75
2023/12/11 11:18:05;;;;;;;5.15;1.90;;;;;;;10.38;60.91;98717.16;4954588;28;96730;-77
2023/12/11 11:20:32;;;;;;;5.30;2.00;;;;;;;10.45;60.62;98720.28;4968493;28;96928;-76
2023/12/11 11:23:18;;;;;;;5.70;2.15;;;;;;;10.35;60.81;98725.19;4936303;28;100934;-78
2023/12/11 11:25:51;;;;;;;7.05;2.42;;;;;;;10.42;60.83;98705.56;4982263;28;97903;-74
2023/12/11 11:28:35;;;;;;;5.30;2.08;;;;;;;10.31;61.19;98697.47;4949210;28;97295;-75
2023/12/11 11:31:00;;;;;;;5.40;2.00;;;;;;;10.31;61.33;98705.34;4969813;28;96853;-75